createdAt,value
2017-06-26T00:01:37.120Z,65.34
2017-06-26T00:04:03.016Z,66.33
2017-06-26T00:06:28.844Z,66.21
2017-06-26T00:08:54.779Z,65.37
2017-06-26T00:11:20.681Z,65.33
2017-06-26T00:13:46.703Z,65.32
2017-06-26T00:16:12.531Z,65.33
2017-06-26T00:18:38.496Z,65.49
2017-06-26T00:21:04.321Z,65.85
2017-06-26T00:23:30.159Z,66.05
2017-06-26T00:25:56.023Z,65.90
2017-06-26T00:28:21.941Z,66.56
2017-06-26T00:30:47.804Z,66.63
2017-06-26T00:33:13.671Z,66.81
2017-06-26T00:35:39.606Z,66.82
2017-06-26T00:38:05.522Z,67.14
2017-06-26T00:40:31.638Z,67.13
2017-06-26T00:42:57.479Z,66.93
2017-06-26T00:45:23.357Z,67.13
2017-06-26T00:47:49.207Z,67.36
2017-06-26T00:50:15.155Z,67.60
2017-06-26T00:52:41.185Z,67.47
2017-06-26T00:55:07.047Z,66.79
2017-06-26T00:57:32.903Z,66.63
2017-06-26T00:59:58.879Z,67.03
2017-06-26T01:02:25.657Z,67.01
2017-06-26T01:04:51.489Z,67.54
2017-06-26T01:07:17.360Z,67.57
2017-06-26T01:09:43.215Z,67.41
2017-06-26T01:12:09.193Z,67.54
2017-06-26T01:14:35.031Z,66.93
2017-06-26T01:17:00.940Z,67.67
2017-06-26T01:19:26.887Z,67.74
2017-06-26T01:21:52.819Z,67.29
2017-06-26T01:24:18.691Z,67.24
2017-06-26T01:26:44.532Z,67.10
2017-06-26T01:29:10.419Z,67.35
2017-06-26T01:31:36.296Z,67.13
2017-06-26T01:34:02.189Z,67.74
2017-06-26T01:36:28.055Z,67.76
2017-06-26T01:38:53.953Z,68.33
2017-06-26T01:41:19.813Z,68.37
2017-06-26T01:43:45.678Z,68.60
2017-06-26T01:46:12.531Z,68.69
2017-06-26T01:48:38.524Z,68.45
2017-06-26T01:51:04.367Z,68.64
2017-06-26T01:53:30.233Z,68.57
2017-06-26T01:55:56.250Z,69.12
2017-06-26T01:58:22.139Z,70.17
2017-06-26T02:00:48.007Z,69.42
2017-06-26T02:03:13.944Z,68.77
2017-06-26T02:05:39.868Z,68.41
2017-06-26T02:08:05.840Z,68.31
2017-06-26T02:10:31.749Z,67.97
2017-06-26T02:12:57.658Z,67.87
2017-06-26T02:15:23.487Z,67.98
2017-06-26T02:17:49.351Z,67.90
2017-06-26T02:20:15.188Z,67.73
2017-06-26T02:22:41.020Z,67.86
2017-06-26T02:25:06.888Z,68.00
2017-06-26T02:27:32.857Z,68.05
2017-06-26T02:29:58.675Z,67.74
2017-06-26T02:32:24.531Z,68.24
2017-06-26T02:34:50.487Z,68.42
2017-06-26T02:37:16.326Z,68.76
2017-06-26T02:39:42.202Z,68.89
2017-06-26T02:42:08.104Z,68.88
2017-06-26T02:44:33.977Z,68.58
2017-06-26T02:46:59.844Z,68.99
2017-06-26T02:49:26.908Z,68.88
2017-06-26T02:51:52.813Z,68.76
2017-06-26T02:54:18.648Z,68.96
2017-06-26T02:56:44.537Z,68.85
2017-06-26T02:59:10.376Z,69.07
2017-06-26T03:01:36.288Z,69.18
2017-06-26T03:04:02.436Z,68.87
2017-06-26T03:06:28.349Z,69.04
2017-06-26T03:08:54.264Z,68.96
2017-06-26T03:11:20.239Z,68.85
2017-06-26T03:13:46.090Z,69.10
2017-06-26T03:16:12.014Z,69.04
2017-06-26T03:18:37.871Z,68.96
2017-06-26T03:21:03.680Z,69.35
2017-06-26T03:23:29.484Z,69.34
2017-06-26T03:25:55.309Z,69.67
2017-06-26T03:28:21.149Z,69.57
2017-06-26T03:30:47.027Z,69.58
2017-06-26T03:33:12.936Z,69.94
2017-06-26T03:35:38.751Z,69.93
2017-06-26T03:38:04.597Z,70.04
2017-06-26T03:40:30.470Z,69.36
2017-06-26T03:42:56.288Z,69.41
2017-06-26T03:45:22.130Z,69.32
2017-06-26T03:47:47.934Z,69.10
2017-06-26T03:50:13.773Z,69.02
2017-06-26T03:52:39.776Z,68.74
2017-06-26T03:55:05.639Z,68.75
2017-06-26T03:57:31.586Z,68.39
2017-06-26T03:59:57.387Z,68.41
2017-06-26T04:02:23.177Z,68.55
2017-06-26T04:04:49.122Z,68.59
2017-06-26T04:07:15.042Z,68.29
2017-06-26T04:09:40.933Z,68.19
2017-06-26T04:12:06.963Z,67.74
2017-06-26T04:14:32.997Z,68.92
2017-06-26T04:16:58.969Z,68.81
2017-06-26T04:19:24.824Z,68.10
2017-06-26T04:21:50.831Z,68.64
2017-06-26T04:24:17.692Z,67.81
2017-06-26T04:26:43.598Z,67.76
2017-06-26T04:29:09.475Z,67.87
2017-06-26T04:31:35.295Z,67.49
2017-06-26T04:34:01.112Z,67.22
2017-06-26T04:36:27.081Z,66.52
2017-06-26T04:38:52.905Z,66.39
2017-06-26T04:41:18.761Z,65.94
2017-06-26T04:43:44.635Z,65.92
2017-06-26T04:46:10.513Z,65.92
2017-06-26T04:48:36.405Z,65.70
2017-06-26T04:51:02.227Z,65.58
2017-06-26T04:53:28.149Z,65.63
2017-06-26T04:55:54.070Z,65.37
2017-06-26T05:00:54.694Z,64.74
2017-06-26T05:03:20.575Z,63.99
2017-06-26T05:05:46.441Z,63.69
2017-06-26T05:08:12.346Z,63.64
2017-06-26T05:10:38.211Z,63.52
2017-06-26T05:13:11.034Z,63.29
2017-06-26T05:15:36.889Z,62.97
2017-06-26T05:18:02.830Z,62.62
2017-06-26T05:20:28.641Z,62.21
2017-06-26T05:22:54.471Z,61.96
2017-06-26T05:25:20.341Z,62.34
2017-06-26T05:27:46.353Z,61.55
2017-06-26T05:30:12.181Z,61.40
2017-06-26T05:32:38.000Z,61.08
2017-06-26T05:35:03.829Z,61.15
2017-06-26T05:37:29.665Z,60.73
2017-06-26T05:39:55.557Z,60.22
2017-06-26T05:42:21.352Z,59.29
2017-06-26T05:44:47.197Z,59.31
2017-06-26T05:47:13.057Z,58.72
2017-06-26T05:49:39.967Z,58.43
2017-06-26T05:52:05.821Z,58.06
2017-06-26T05:54:31.801Z,57.92
2017-06-26T05:56:57.605Z,58.19
2017-06-26T05:59:23.471Z,57.63
2017-06-26T06:01:49.381Z,57.10
2017-06-26T06:04:15.277Z,56.99
2017-06-26T06:06:41.177Z,56.60
2017-06-26T06:09:08.134Z,55.81
2017-06-26T06:11:33.965Z,56.03
2017-06-26T06:14:00.039Z,56.14
2017-06-26T06:16:26.028Z,55.67
2017-06-26T06:18:51.840Z,55.05
2017-06-26T06:21:17.689Z,54.78
2017-06-26T06:23:43.652Z,54.06
2017-06-26T06:26:09.445Z,53.42
2017-06-26T06:28:35.265Z,53.14
2017-06-26T06:31:01.137Z,53.70
2017-06-26T06:33:26.942Z,52.55
2017-06-26T06:35:52.765Z,53.07
2017-06-26T06:38:18.829Z,51.94
2017-06-26T06:40:44.849Z,50.93
2017-06-26T06:43:10.888Z,51.52
2017-06-26T06:45:37.209Z,51.03
2017-06-26T06:48:04.125Z,51.52
2017-06-26T06:50:29.994Z,52.44
2017-06-26T06:52:55.968Z,52.83
2017-06-26T06:55:21.797Z,50.69
2017-06-26T06:57:49.340Z,51.29
2017-06-26T07:00:15.269Z,51.66
2017-06-26T07:02:41.092Z,51.41
2017-06-26T07:05:06.898Z,50.97
2017-06-26T07:07:32.749Z,50.39
2017-06-26T07:09:58.706Z,50.16
2017-06-26T07:12:24.566Z,48.56
2017-06-26T07:14:50.390Z,49.52
2017-06-26T07:17:16.404Z,49.53
2017-06-26T07:19:42.238Z,49.64
2017-06-26T07:22:08.169Z,50.19
2017-06-26T07:24:34.052Z,50.33
2017-06-26T07:26:59.891Z,49.82
2017-06-26T07:29:25.916Z,47.83
2017-06-26T07:31:51.892Z,46.49
2017-06-26T07:34:17.721Z,46.25
2017-06-26T07:36:43.545Z,47.07
2017-06-26T07:39:09.412Z,47.24
2017-06-26T07:41:35.314Z,47.83
2017-06-26T07:44:01.143Z,47.96
2017-06-26T07:46:26.986Z,47.00
2017-06-26T07:48:52.848Z,46.83
2017-06-26T07:51:18.728Z,45.48
2017-06-26T07:53:44.863Z,46.42
2017-06-26T07:56:10.754Z,45.54
2017-06-26T07:58:36.667Z,45.14
2017-06-26T08:01:02.606Z,45.18
2017-06-26T08:03:28.528Z,45.81
2017-06-26T08:05:54.384Z,47.21
2017-06-26T08:08:20.204Z,48.28
2017-06-26T08:10:46.016Z,47.32
2017-06-26T08:13:11.865Z,46.21
2017-06-26T08:15:37.695Z,45.53
2017-06-26T08:18:03.530Z,45.39
2017-06-26T08:20:29.360Z,45.53
2017-06-26T08:22:55.217Z,44.71
2017-06-26T08:25:21.101Z,44.94
2017-06-26T08:27:46.977Z,44.33
2017-06-26T08:30:13.119Z,44.75
2017-06-26T08:32:38.973Z,43.81
2017-06-26T08:35:04.789Z,42.67
2017-06-26T08:37:30.665Z,41.94
2017-06-26T08:39:56.496Z,40.86
2017-06-26T08:42:22.423Z,40.10
2017-06-26T08:44:48.313Z,42.65
2017-06-26T08:47:14.171Z,42.60
2017-06-26T08:49:40.185Z,42.86
2017-06-26T08:52:06.163Z,43.05
2017-06-26T08:54:32.005Z,43.99
2017-06-26T08:56:57.818Z,43.14
2017-06-26T08:59:23.887Z,42.92
2017-06-26T09:01:49.808Z,42.15
2017-06-26T09:04:15.680Z,41.34
2017-06-26T09:06:41.507Z,42.41
2017-06-26T09:09:07.377Z,42.50
2017-06-26T09:11:33.279Z,41.33
2017-06-26T09:13:59.129Z,41.69
2017-06-26T09:16:25.021Z,39.59
2017-06-26T09:18:51.020Z,39.71
2017-06-26T09:21:16.851Z,39.01
2017-06-26T09:23:42.803Z,38.61
2017-06-26T09:26:08.624Z,40.74
2017-06-26T09:28:34.488Z,40.51
2017-06-26T09:31:00.517Z,40.69
2017-06-26T09:33:26.404Z,40.61
2017-06-26T09:35:52.280Z,42.02
2017-06-26T09:38:18.107Z,43.18
2017-06-26T09:40:43.971Z,41.15
2017-06-26T09:43:09.819Z,39.18
2017-06-26T09:45:35.803Z,39.65
2017-06-26T09:48:01.637Z,38.56
2017-06-26T09:50:27.512Z,38.12
2017-06-26T09:53:00.204Z,36.41
2017-06-26T09:55:26.063Z,35.50
2017-06-26T09:57:52.246Z,36.63
2017-06-26T10:00:18.153Z,34.20
2017-06-26T10:02:44.056Z,35.87
2017-06-26T10:05:09.895Z,36.93
2017-06-26T10:07:35.922Z,34.98
2017-06-26T10:10:01.821Z,33.63
2017-06-26T10:12:28.660Z,35.63
2017-06-26T10:14:54.592Z,33.56
2017-06-26T10:17:20.472Z,32.60
2017-06-26T10:19:47.171Z,32.70
2017-06-26T10:22:13.011Z,35.47
2017-06-26T10:24:38.852Z,35.10
2017-06-26T10:27:04.853Z,34.43
2017-06-26T10:29:30.729Z,35.21
2017-06-26T10:31:56.585Z,33.64
2017-06-26T10:34:22.450Z,32.49
2017-06-26T10:36:48.497Z,32.52
2017-06-26T10:39:14.413Z,33.13
2017-06-26T10:41:40.273Z,34.09
2017-06-26T10:44:06.148Z,32.71
2017-06-26T10:46:32.163Z,33.08
2017-06-26T10:48:58.009Z,32.70
2017-06-26T10:51:23.964Z,33.09
2017-06-26T10:53:49.834Z,32.67
2017-06-26T10:56:15.857Z,31.69
2017-06-26T10:58:41.821Z,31.12
2017-06-26T11:01:07.698Z,31.49
2017-06-26T11:03:33.688Z,31.30
2017-06-26T11:05:59.534Z,31.20
2017-06-26T11:08:25.380Z,30.31
2017-06-26T11:10:51.277Z,31.80
2017-06-26T11:13:17.132Z,30.67
2017-06-26T11:15:42.960Z,31.41
2017-06-26T11:18:08.867Z,31.89
2017-06-26T11:20:34.820Z,32.05
2017-06-26T11:23:00.795Z,33.24
2017-06-26T11:25:26.643Z,30.70
2017-06-26T11:27:52.568Z,30.48
2017-06-26T11:30:18.525Z,32.08
2017-06-26T11:32:44.355Z,31.78
2017-06-26T11:35:10.200Z,28.65
2017-06-26T11:37:36.156Z,29.00
2017-06-26T11:40:01.993Z,30.10
2017-06-26T11:42:27.886Z,28.97
2017-06-26T11:44:53.868Z,29.10
2017-06-26T11:47:20.411Z,29.00
2017-06-26T11:49:46.300Z,29.43
2017-06-26T11:52:12.161Z,29.89
2017-06-26T11:54:38.072Z,28.53
2017-06-26T11:57:03.961Z,28.52
2017-06-26T11:59:29.807Z,27.51
2017-06-26T12:01:55.703Z,27.76
2017-06-26T12:04:21.552Z,27.34
2017-06-26T12:06:47.392Z,27.56
2017-06-26T12:09:13.319Z,26.34
2017-06-26T12:11:39.204Z,28.20
2017-06-26T12:14:05.101Z,29.02
2017-06-26T12:16:30.932Z,28.35
2017-06-26T12:18:56.785Z,28.20
2017-06-26T12:21:22.824Z,28.48
2017-06-26T12:23:48.704Z,27.98
2017-06-26T12:26:14.663Z,28.38
2017-06-26T12:28:40.564Z,28.38
2017-06-26T12:31:06.415Z,29.33
2017-06-26T12:33:32.316Z,29.14
2017-06-26T12:35:58.212Z,29.11
2017-06-26T12:38:24.122Z,29.24
2017-06-26T12:40:50.104Z,28.49
2017-06-26T12:43:15.991Z,28.90
2017-06-26T12:45:41.816Z,29.21
2017-06-26T12:48:07.669Z,28.83
2017-06-26T12:50:33.568Z,27.71
2017-06-26T12:52:59.419Z,28.39
2017-06-26T12:55:25.318Z,27.23
2017-06-26T12:57:51.808Z,26.57
2017-06-26T13:00:17.772Z,26.75
2017-06-26T13:02:43.660Z,25.09
2017-06-26T13:05:09.514Z,26.12
2017-06-26T13:07:35.384Z,24.54
2017-06-26T13:10:01.320Z,24.73
2017-06-26T13:12:27.195Z,24.92
2017-06-26T13:14:53.138Z,25.80
2017-06-26T13:17:19.841Z,25.17
2017-06-26T13:19:45.806Z,24.78
2017-06-26T13:22:11.658Z,24.72
2017-06-26T13:24:37.535Z,24.89
2017-06-26T13:27:03.381Z,25.04
2017-06-26T13:29:29.282Z,24.34
2017-06-26T13:31:56.065Z,24.80
2017-06-26T13:34:22.085Z,24.71
2017-06-26T13:36:47.927Z,24.05
2017-06-26T13:39:13.852Z,24.53
2017-06-26T13:41:39.688Z,24.22
2017-06-26T13:44:05.584Z,25.47
2017-06-26T13:46:31.491Z,25.60
2017-06-26T13:48:57.381Z,24.86
2017-06-26T13:51:23.266Z,23.72
2017-06-26T13:53:49.164Z,23.48
2017-06-26T13:56:15.113Z,23.49
2017-06-26T13:58:41.025Z,24.18
2017-06-26T14:01:06.880Z,25.86
2017-06-26T14:03:32.807Z,25.21
2017-06-26T14:05:58.664Z,24.88
2017-06-26T14:08:24.513Z,25.58
2017-06-26T14:10:50.860Z,24.28
2017-06-26T14:13:16.740Z,25.39
2017-06-26T14:15:42.591Z,24.82
2017-06-26T14:18:08.605Z,24.97
2017-06-26T14:20:34.463Z,24.67
2017-06-26T14:23:00.394Z,24.17
2017-06-26T14:25:26.284Z,24.73
2017-06-26T14:27:52.227Z,24.99
2017-06-26T14:30:18.162Z,24.88
2017-06-26T14:32:44.000Z,24.63
2017-06-26T14:35:09.974Z,24.49
2017-06-26T14:37:35.980Z,23.98
2017-06-26T14:40:01.920Z,24.75
2017-06-26T14:42:27.842Z,24.58
2017-06-26T14:44:53.771Z,24.78
2017-06-26T14:47:19.664Z,24.40
2017-06-26T14:49:45.547Z,24.30
2017-06-26T14:52:11.405Z,23.87
2017-06-26T14:54:37.379Z,23.83
2017-06-26T14:57:03.331Z,23.39
2017-06-26T14:59:29.312Z,24.95
2017-06-26T15:01:55.147Z,24.36
2017-06-26T15:04:20.994Z,25.65
2017-06-26T15:06:47.106Z,24.68
2017-06-26T15:09:12.962Z,24.86
2017-06-26T15:11:38.957Z,23.95
2017-06-26T15:14:04.881Z,25.47
2017-06-26T15:16:30.939Z,26.61
2017-06-26T15:18:56.876Z,25.66
2017-06-26T15:21:22.895Z,25.81
2017-06-26T15:23:48.841Z,25.28
2017-06-26T15:26:14.877Z,25.58
2017-06-26T15:28:40.858Z,25.76
2017-06-26T15:31:06.878Z,26.44
2017-06-26T15:33:32.889Z,25.31
2017-06-26T15:35:58.732Z,25.05
2017-06-26T15:38:24.762Z,26.02
2017-06-26T15:40:50.617Z,26.30
2017-06-26T15:43:16.491Z,26.33
2017-06-26T15:45:42.357Z,25.87
2017-06-26T15:48:08.216Z,26.54
2017-06-26T15:50:34.175Z,26.23
2017-06-26T15:53:00.015Z,28.14
2017-06-26T15:55:25.860Z,27.54
2017-06-26T15:57:53.175Z,27.71
2017-06-26T16:00:19.066Z,27.95
2017-06-26T16:02:44.961Z,27.97
2017-06-26T16:05:10.783Z,27.35
2017-06-26T16:07:36.644Z,28.44
2017-06-26T16:10:02.691Z,28.68
2017-06-26T16:12:28.568Z,27.96
2017-06-26T16:14:54.507Z,29.27
2017-06-26T16:17:20.404Z,28.68
2017-06-26T16:19:46.306Z,28.25
2017-06-26T16:22:12.211Z,28.47
2017-06-26T16:24:38.050Z,28.69
2017-06-26T16:27:04.001Z,28.84
2017-06-26T16:29:29.837Z,28.93
2017-06-26T16:31:55.775Z,28.31
2017-06-26T16:34:21.624Z,27.82
2017-06-26T16:36:47.445Z,28.10
2017-06-26T16:39:13.304Z,27.84
2017-06-26T16:41:39.132Z,28.08
2017-06-26T16:44:05.144Z,27.94
2017-06-26T16:46:31.052Z,28.09
2017-06-26T16:48:56.931Z,27.82
2017-06-26T16:51:22.766Z,28.37
2017-06-26T16:53:48.989Z,28.15
2017-06-26T16:56:14.813Z,27.74
2017-06-26T16:58:40.640Z,27.81
2017-06-26T17:01:06.611Z,29.57
2017-06-26T17:03:32.460Z,30.08
2017-06-26T17:05:58.338Z,30.14
2017-06-26T17:08:24.160Z,30.52
2017-06-26T17:10:49.976Z,30.04
2017-06-26T17:13:15.827Z,31.17
2017-06-26T17:15:41.663Z,31.35
2017-06-26T17:18:07.544Z,32.10
2017-06-26T17:20:33.400Z,32.46
2017-06-26T17:22:59.227Z,32.05
2017-06-26T17:25:25.134Z,32.28
2017-06-26T17:27:50.958Z,32.49
2017-06-26T17:30:16.791Z,32.59
2017-06-26T17:32:42.699Z,32.69
2017-06-26T17:35:08.589Z,32.89
2017-06-26T17:37:34.464Z,33.49
2017-06-26T17:40:00.338Z,33.69
2017-06-26T17:42:26.158Z,33.72
2017-06-26T17:44:52.011Z,33.84
2017-06-26T17:47:17.934Z,34.40
2017-06-26T17:49:44.645Z,34.19
2017-06-26T17:52:10.504Z,34.87
2017-06-26T17:54:36.466Z,34.71
2017-06-26T17:57:02.295Z,34.96
2017-06-26T17:59:28.147Z,35.59
2017-06-26T18:01:54.013Z,35.11
2017-06-26T18:04:19.902Z,35.05
2017-06-26T18:06:45.827Z,35.19
2017-06-26T18:09:11.787Z,35.60
2017-06-26T18:11:37.720Z,35.91
2017-06-26T18:14:03.600Z,36.15
2017-06-26T18:16:29.435Z,36.20
2017-06-26T18:18:55.295Z,36.04
2017-06-26T18:21:21.351Z,36.38
2017-06-26T18:23:47.275Z,36.49
2017-06-26T18:26:13.108Z,37.03
2017-06-26T18:28:38.972Z,37.69
2017-06-26T18:31:04.860Z,37.84
2017-06-26T18:33:30.847Z,38.23
2017-06-26T18:35:56.780Z,38.07
2017-06-26T18:38:22.649Z,38.12
2017-06-26T18:40:48.501Z,38.48
2017-06-26T18:43:14.437Z,38.92
2017-06-26T18:45:40.356Z,38.08
2017-06-26T18:48:06.284Z,37.79
2017-06-26T18:50:32.180Z,37.99
2017-06-26T18:52:58.075Z,38.23
2017-06-26T18:55:24.061Z,38.11
2017-06-26T18:57:50.765Z,38.35
2017-06-26T19:00:16.706Z,38.49
2017-06-26T19:02:42.593Z,39.22
2017-06-26T19:05:08.508Z,39.98
2017-06-26T19:07:34.379Z,40.27
2017-06-26T19:10:00.332Z,40.95
2017-06-26T19:12:26.158Z,41.41
2017-06-26T19:14:52.027Z,41.97
2017-06-26T19:17:17.856Z,41.74
2017-06-26T19:19:43.751Z,42.05
2017-06-26T19:22:09.665Z,42.16
2017-06-26T19:24:35.624Z,42.59
2017-06-26T19:27:01.523Z,42.98
2017-06-26T19:29:27.391Z,43.29
2017-06-26T19:31:53.237Z,43.34
2017-06-26T19:34:19.199Z,43.74
2017-06-26T19:36:45.051Z,43.71
2017-06-26T19:39:10.927Z,43.67
2017-06-26T19:41:36.767Z,44.01
2017-06-26T19:44:03.194Z,43.65
2017-06-26T19:46:29.099Z,44.05
2017-06-26T19:48:54.976Z,44.27
2017-06-26T19:51:20.848Z,43.94
2017-06-26T19:53:46.698Z,44.42
2017-06-26T19:56:12.580Z,44.91
2017-06-26T19:58:38.434Z,45.18
2017-06-26T20:01:04.379Z,44.92
2017-06-26T20:03:30.232Z,45.16
2017-06-26T20:05:56.085Z,44.98
2017-06-26T20:08:21.955Z,45.49
2017-06-26T20:10:47.837Z,45.37
2017-06-26T20:13:13.737Z,45.62
2017-06-26T20:15:39.643Z,45.62
2017-06-26T20:18:05.486Z,45.99
2017-06-26T20:20:31.364Z,46.46
2017-06-26T20:22:57.270Z,46.31
2017-06-26T20:25:23.208Z,47.79
2017-06-26T20:27:49.049Z,47.91
2017-06-26T20:30:15.075Z,47.81
2017-06-26T20:32:40.907Z,47.98
2017-06-26T20:35:06.825Z,48.80
2017-06-26T20:37:32.674Z,48.23
2017-06-26T20:39:58.528Z,48.16
2017-06-26T20:42:24.484Z,47.45
2017-06-26T20:44:50.341Z,47.09
2017-06-26T20:47:16.203Z,47.37
2017-06-26T20:49:42.121Z,47.80
2017-06-26T20:52:08.111Z,47.50
2017-06-26T20:54:33.968Z,48.45
2017-06-26T20:56:59.927Z,48.58
2017-06-26T20:59:25.943Z,48.43
2017-06-26T21:01:51.971Z,48.33
2017-06-26T21:04:24.664Z,47.94
2017-06-26T21:06:50.485Z,47.45
2017-06-26T21:09:16.350Z,47.45
2017-06-26T21:11:42.307Z,48.32
2017-06-26T21:14:08.148Z,47.94
2017-06-26T21:16:33.976Z,48.50
2017-06-26T21:18:59.872Z,48.46
2017-06-26T21:21:25.844Z,48.85
2017-06-26T21:23:51.775Z,48.46
2017-06-26T21:26:17.656Z,48.30
2017-06-26T21:28:43.738Z,47.62
2017-06-26T21:31:09.634Z,48.83
2017-06-26T21:33:35.535Z,51.17
2017-06-26T21:36:01.434Z,50.49
2017-06-26T21:38:27.301Z,50.52
2017-06-26T21:40:53.212Z,51.25
2017-06-26T21:43:19.189Z,51.89
2017-06-26T21:45:45.041Z,50.88
2017-06-26T21:48:10.876Z,50.83
2017-06-26T21:50:36.827Z,51.90
2017-06-26T21:53:02.667Z,55.67
2017-06-26T21:55:28.545Z,59.52
2017-06-26T21:57:54.478Z,63.31
2017-06-26T22:00:20.412Z,65.59
2017-06-26T22:02:46.304Z,71.03
2017-06-26T22:05:13.096Z,74.91
2017-06-26T22:07:39.107Z,78.84
2017-06-26T22:10:05.049Z,76.25
2017-06-26T22:12:31.007Z,77.22
2017-06-26T22:14:56.943Z,76.40
2017-06-26T22:17:22.852Z,80.25
2017-06-26T22:19:48.723Z,79.84
2017-06-26T22:22:14.586Z,79.87
2017-06-26T22:24:40.911Z,79.80
2017-06-26T22:27:06.815Z,82.13
2017-06-26T22:29:32.648Z,82.13
2017-06-26T22:31:58.504Z,80.40
2017-06-26T22:34:24.472Z,80.96
2017-06-26T22:36:50.299Z,79.61
2017-06-26T22:39:16.330Z,82.67
2017-06-26T22:41:42.336Z,85.43
2017-06-26T22:44:08.187Z,83.94
2017-06-26T22:46:34.219Z,85.14
2017-06-26T22:49:00.173Z,83.26
2017-06-26T22:51:26.012Z,83.91
2017-06-26T22:53:51.852Z,82.96
2017-06-26T22:56:17.912Z,82.08
2017-06-26T22:58:43.913Z,81.79
2017-06-26T23:01:09.831Z,83.10
2017-06-26T23:03:35.728Z,82.42
2017-06-26T23:06:01.586Z,83.34
2017-06-26T23:08:27.523Z,84.62
2017-06-26T23:10:53.343Z,86.22
2017-06-26T23:13:19.249Z,86.60
2017-06-26T23:15:45.145Z,86.46
2017-06-26T23:18:11.045Z,86.99
2017-06-26T23:20:36.869Z,87.53
2017-06-26T23:23:02.694Z,88.40
2017-06-26T23:25:28.556Z,88.33
2017-06-26T23:27:54.549Z,86.97
2017-06-26T23:30:20.510Z,87.67
2017-06-26T23:32:46.318Z,89.04
2017-06-26T23:35:12.141Z,89.00
2017-06-26T23:37:38.004Z,90.55
2017-06-26T23:40:03.835Z,91.33
2017-06-26T23:42:29.651Z,90.06
2017-06-26T23:44:55.509Z,90.34
2017-06-26T23:47:21.416Z,90.22
2017-06-26T23:49:47.232Z,90.75
2017-06-26T23:52:13.161Z,86.83
2017-06-26T23:54:39.114Z,88.91
2017-06-26T23:57:04.946Z,90.44
2017-06-26T23:59:30.998Z,89.57
